Terminal Aerodrome Forecast
Issued by NWS Buffalo, NY

Home | Current Version | Previous Version | Text Only | Print | Product List | Glossary On
Versions: 1 2 3 4 5 6 7 8 9 10 11 12 13 14 15 16 17 18 19 20 21 22 23 24 25 26 27 28
000
FTUS41 KBUF 031700
TAFART
TAF
KART 031735Z 0318/0418 16004KT P6SM OVC120
     FM032000 16010G20KT 1SM -SN OVC015
     FM040100 18016G26KT 2SM -FZRAPLSN OVC020
     FM040600 22019G30KT 4SM BR VCSH OVC020
     FM041100 24018KT P6SM OVC020=

USA.gov is the U.S. government's official web portal to all federal, state and local government web resources and services.